createdAt,value
2018-03-08T00:00:01.565Z,47.50
2018-03-08T00:05:02.576Z,43.83
2018-03-08T00:10:03.527Z,40.53
2018-03-08T00:15:04.484Z,42.77
2018-03-08T00:20:05.428Z,38.37
2018-03-08T00:25:06.352Z,37.80
2018-03-08T08:07:55.793Z,75.70
2018-03-08T08:12:56.738Z,76.40
2018-03-08T08:23:42.619Z,95.67
2018-03-08T08:28:43.565Z,85.90
2018-03-08T08:33:44.571Z,92.13
2018-03-08T08:38:45.512Z,99.63
2018-03-08T08:43:46.462Z,93.53
2018-03-08T08:48:47.410Z,102.73
2018-03-08T08:53:48.388Z,93.70
2018-03-08T08:58:49.310Z,100.80
2018-03-08T09:03:50.255Z,86.53
2018-03-08T09:08:51.222Z,96.37
2018-03-08T09:13:52.413Z,88.03
2018-03-08T09:18:53.357Z,88.23
2018-03-08T09:23:54.300Z,78.23
2018-03-08T09:28:55.244Z,67.27
2018-03-08T09:33:56.185Z,63.90
2018-03-08T09:38:57.127Z,63.30
2018-03-08T09:43:58.104Z,63.17
2018-03-08T09:48:59.043Z,61.20
2018-03-08T09:53:59.992Z,56.83
2018-03-08T09:59:00.943Z,51.40
2018-03-08T10:04:01.879Z,48.40
2018-03-08T10:09:02.854Z,51.80
2018-03-08T10:14:03.816Z,44.80
2018-03-08T10:19:04.769Z,47.63
2018-03-08T10:24:05.710Z,46.80
2018-03-08T10:29:06.660Z,44.30
2018-03-08T10:34:08.067Z,45.50
2018-03-08T10:44:10.594Z,44.80
2018-03-08T10:49:11.858Z,50.47
2018-03-08T10:54:12.797Z,44.90
2018-03-08T10:59:13.769Z,46.33
2018-03-08T11:04:14.748Z,48.17
2018-03-08T11:09:15.677Z,45.30
2018-03-08T11:14:16.653Z,48.57
2018-03-08T11:19:17.612Z,47.63
2018-03-08T11:24:18.543Z,54.20
2018-03-08T11:29:19.480Z,51.77
2018-03-08T11:34:20.437Z,62.53
2018-03-08T11:39:21.374Z,63.37
2018-03-08T11:44:22.357Z,55.97
2018-03-08T11:49:23.317Z,58.40
2018-03-08T11:54:24.267Z,64.87
2018-03-08T11:59:25.255Z,58.50
2018-03-08T12:04:26.219Z,54.20
2018-03-08T12:09:27.183Z,54.60
2018-03-08T12:14:28.208Z,56.57
2018-03-08T12:19:29.165Z,53.80
2018-03-08T12:24:30.133Z,49.20
2018-03-08T12:29:31.101Z,47.70
2018-03-08T12:34:32.066Z,45.43
2018-03-08T12:39:33.018Z,41.70
2018-03-08T12:44:33.979Z,43.27
2018-03-08T12:49:34.957Z,38.77
2018-03-08T12:54:35.892Z,34.67
2018-03-08T12:59:36.850Z,34.40
2018-03-08T13:04:37.876Z,34.23
2018-03-08T13:09:38.805Z,32.33
2018-03-08T13:14:39.792Z,31.77
2018-03-08T13:19:40.763Z,29.10
2018-03-08T13:24:41.712Z,27.17
2018-03-08T13:29:42.641Z,28.20
2018-03-08T13:34:43.623Z,28.27
2018-03-08T13:39:44.568Z,24.90
2018-03-08T13:44:45.510Z,23.60
2018-03-08T13:49:46.485Z,22.30
2018-03-08T13:54:47.441Z,24.20
2018-03-08T13:59:48.397Z,22.03
2018-03-08T14:04:49.321Z,23.83
2018-03-08T14:09:50.254Z,25.43
2018-03-08T14:14:51.220Z,24.43
2018-03-08T14:19:52.170Z,26.13
2018-03-08T14:24:53.116Z,26.53
2018-03-08T14:29:54.079Z,26.97
2018-03-08T14:34:55.070Z,28.43
2018-03-08T14:39:56.343Z,27.40
2018-03-08T14:44:57.302Z,29.40
2018-03-08T14:49:58.288Z,29.47
2018-03-08T14:54:59.296Z,27.60
2018-03-08T15:00:00.269Z,27.63
2018-03-08T15:05:01.489Z,26.10
2018-03-08T15:10:02.451Z,26.73
2018-03-08T15:15:03.467Z,25.97
2018-03-08T15:20:04.713Z,24.20
2018-03-08T15:25:05.666Z,25.20
2018-03-08T15:30:06.630Z,24.07
2018-03-08T15:35:07.601Z,22.70
2018-03-08T15:40:08.826Z,20.93
2018-03-08T15:45:09.745Z,21.33
2018-03-08T15:50:10.949Z,23.30
2018-03-08T15:55:11.918Z,21.13
2018-03-08T16:00:12.904Z,20.70
2018-03-08T16:05:13.857Z,20.17
2018-03-08T16:10:33.955Z,22.90
2018-03-08T16:15:34.952Z,22.83
2018-03-08T16:20:36.267Z,21.67
2018-03-08T16:25:37.276Z,20.93
2018-03-08T16:30:38.233Z,23.03
2018-03-08T16:35:39.655Z,21.90
2018-03-08T16:40:40.619Z,25.07
2018-03-08T16:45:42.652Z,25.20
2018-03-08T16:50:43.630Z,28.93
2018-03-08T16:55:44.576Z,28.93
2018-03-08T17:00:45.538Z,29.87
2018-03-08T17:05:46.510Z,29.17
2018-03-08T17:10:47.480Z,29.27
2018-03-08T17:15:48.511Z,31.63
2018-03-08T17:20:49.469Z,28.20
2018-03-08T17:25:50.450Z,27.87
2018-03-08T17:30:51.418Z,25.97
2018-03-08T17:35:52.378Z,27.10
2018-03-08T17:40:53.369Z,28.43
2018-03-08T17:45:54.363Z,26.47
2018-03-08T17:50:55.340Z,26.67
2018-03-08T17:55:56.332Z,23.27
2018-03-08T18:00:57.306Z,25.10
2018-03-08T18:05:58.244Z,22.77
2018-03-08T18:10:59.224Z,17.57
2018-03-08T18:16:00.242Z,12.20
2018-03-08T18:21:01.200Z,14.43
2018-03-08T18:26:02.168Z,10.93
2018-03-08T18:31:03.170Z,10.47
2018-03-08T18:36:04.130Z,8.90
2018-03-08T18:41:05.107Z,11.53
2018-03-08T18:46:06.056Z,11.17
2018-03-08T18:51:07.047Z,10.40
2018-03-08T18:56:08.040Z,12.60
2018-03-08T19:01:09.015Z,15.00
2018-03-08T19:06:10.015Z,14.20
2018-03-08T19:11:10.987Z,12.57
2018-03-08T19:16:12.001Z,15.20
2018-03-08T19:21:12.948Z,15.00
2018-03-08T19:26:14.023Z,15.50
2018-03-08T19:31:15.020Z,19.27
2018-03-08T19:36:16.024Z,15.20
2018-03-08T19:41:16.987Z,14.93
2018-03-08T19:46:17.973Z,13.33
2018-03-08T19:51:19.006Z,14.63
2018-03-08T19:56:20.013Z,16.20
2018-03-08T20:01:21.040Z,13.37
2018-03-08T20:06:22.484Z,16.33
2018-03-08T20:11:23.438Z,16.87
2018-03-08T20:16:24.461Z,16.50
2018-03-08T20:21:25.428Z,16.27
2018-03-08T20:26:26.448Z,15.77
2018-03-08T20:31:27.431Z,15.40
2018-03-08T20:36:28.445Z,16.13
2018-03-08T20:41:29.410Z,17.67
2018-03-08T20:52:05.457Z,17.10
2018-03-08T20:57:06.449Z,19.70
2018-03-08T21:02:07.750Z,17.97
2018-03-08T21:07:08.729Z,18.00
2018-03-08T21:12:09.728Z,21.40
2018-03-08T21:17:10.699Z,20.57
2018-03-08T21:22:11.698Z,22.57
2018-03-08T21:27:12.667Z,21.70
2018-03-08T21:37:21.236Z,25.27
2018-03-08T21:42:22.206Z,24.73
2018-03-08T21:47:23.166Z,24.93
2018-03-08T21:52:24.469Z,22.53
2018-03-08T21:57:25.452Z,24.53
2018-03-08T22:02:26.412Z,24.23
2018-03-08T22:07:27.374Z,24.43
2018-03-08T22:12:28.337Z,24.40
2018-03-08T22:17:29.314Z,24.17
2018-03-08T22:22:30.285Z,26.10
2018-03-08T22:27:31.234Z,23.73
2018-03-08T22:32:32.201Z,21.67
2018-03-08T22:37:33.188Z,20.27
2018-03-08T22:42:34.170Z,21.40
2018-03-08T22:47:35.120Z,18.60
2018-03-08T22:52:36.297Z,19.47
2018-03-08T22:57:37.306Z,18.07
2018-03-08T23:02:38.241Z,17.47
2018-03-08T23:07:39.193Z,16.80
2018-03-08T23:12:40.135Z,16.27
2018-03-08T23:17:41.074Z,16.17
2018-03-08T23:22:42.041Z,16.40
2018-03-08T23:27:42.967Z,16.93
2018-03-08T23:32:44.216Z,13.63
2018-03-08T23:37:45.176Z,15.40
2018-03-08T23:42:46.117Z,15.57
2018-03-08T23:47:47.093Z,16.00
2018-03-08T23:52:48.044Z,17.30
2018-03-08T23:57:49.038Z,16.60
